createdAt,value
2023-03-04T00:01:30.348Z,37.24
2023-03-04T00:03:58.480Z,36.86
2023-03-04T00:06:26.586Z,37.01
2023-03-04T00:08:54.762Z,37.72
2023-03-04T00:11:22.844Z,37.38
2023-03-04T00:13:52.327Z,37.65
2023-03-04T00:16:20.522Z,37.37
2023-03-04T00:18:48.760Z,37.56
2023-03-04T00:21:16.860Z,37.42
2023-03-04T00:23:44.971Z,37.41
2023-03-04T00:26:13.538Z,37.28
2023-03-04T00:28:43.865Z,37.49
2023-03-04T00:31:13.371Z,36.92
2023-03-04T00:33:43.509Z,37.12
2023-03-04T00:36:11.833Z,37.43
2023-03-04T00:38:39.924Z,37.02
2023-03-04T00:41:08.022Z,37.09
2023-03-04T00:43:36.131Z,36.92
2023-03-04T00:46:04.278Z,37.46
2023-03-04T00:48:33.769Z,37.13
2023-03-04T00:51:01.891Z,36.78
2023-03-04T00:53:30.017Z,37.32
2023-03-04T00:55:58.234Z,36.98
2023-03-04T00:58:26.341Z,36.79
2023-03-04T01:00:54.537Z,37.32
2023-03-04T01:03:22.656Z,37.43
2023-03-04T01:05:52.147Z,37.21
2023-03-04T01:08:20.225Z,37.34
2023-03-04T01:10:48.627Z,37.02
2023-03-04T01:13:16.716Z,37.21
2023-03-04T01:15:44.884Z,36.76
2023-03-04T01:18:13.030Z,37.04
2023-03-04T01:20:42.819Z,37.38
2023-03-04T01:23:12.324Z,37.11
2023-03-04T01:25:40.410Z,36.76
2023-03-04T01:28:08.549Z,37.01
2023-03-04T01:30:36.700Z,36.57
2023-03-04T01:33:04.875Z,36.67
2023-03-04T01:35:32.997Z,36.91
2023-03-04T01:38:01.177Z,36.52
2023-03-04T01:40:30.631Z,37.27
2023-03-04T01:42:58.746Z,36.98
2023-03-04T01:45:26.815Z,36.89
2023-03-04T01:47:54.933Z,36.60
2023-03-04T01:50:25.178Z,37.18
2023-03-04T01:52:53.270Z,37.19
2023-03-04T01:55:21.985Z,36.55
2023-03-04T01:57:52.503Z,36.56
2023-03-04T02:00:26.595Z,36.51
2023-03-04T02:02:56.017Z,36.60
2023-03-04T02:05:24.808Z,36.91
2023-03-04T02:07:52.968Z,36.85
2023-03-04T02:10:21.198Z,36.85
2023-03-04T02:12:49.382Z,36.35
2023-03-04T02:15:19.162Z,36.59
2023-03-04T02:17:47.391Z,37.02
2023-03-04T02:20:22.096Z,36.57
2023-03-04T02:22:54.693Z,36.80
2023-03-04T02:25:24.251Z,36.71
2023-03-04T02:27:54.340Z,37.07
2023-03-04T02:30:23.405Z,36.33
2023-03-04T02:32:51.519Z,36.48
2023-03-04T02:35:19.934Z,37.07
2023-03-04T02:37:48.083Z,37.04
2023-03-04T02:40:17.930Z,37.11
2023-03-04T02:42:46.685Z,36.31
2023-03-04T02:45:40.857Z,36.80
2023-03-04T02:48:10.084Z,36.46
2023-03-04T02:50:40.812Z,36.92
2023-03-04T02:53:08.929Z,36.87
2023-03-04T02:55:37.087Z,36.31
2023-03-04T02:58:05.172Z,36.44
2023-03-04T03:00:33.340Z,36.69
2023-03-04T03:03:02.842Z,36.88
2023-03-04T03:05:32.537Z,36.87
2023-03-04T03:08:01.257Z,36.53
2023-03-04T03:10:30.258Z,36.61
2023-03-04T03:12:58.835Z,36.97
2023-03-04T03:15:27.128Z,36.58
2023-03-04T03:17:56.676Z,36.70
2023-03-04T03:20:26.160Z,36.99
2023-03-04T03:22:54.223Z,36.71
2023-03-04T03:25:22.365Z,36.71
2023-03-04T03:27:50.454Z,36.51
2023-03-04T03:30:18.930Z,36.29
2023-03-04T03:32:47.032Z,36.60
2023-03-04T03:35:15.456Z,36.91
2023-03-04T03:37:44.940Z,36.32
2023-03-04T03:40:14.482Z,35.76
2023-03-04T03:42:42.627Z,35.67
2023-03-04T03:45:11.604Z,36.08
2023-03-04T03:47:39.762Z,35.90
2023-03-04T03:50:08.485Z,35.66
2023-03-04T03:52:36.586Z,35.64
2023-03-04T03:55:06.672Z,35.59
2023-03-04T03:57:34.835Z,36.07
2023-03-04T04:00:02.984Z,35.91
2023-03-04T04:02:40.458Z,35.59
2023-03-04T04:05:09.561Z,35.71
2023-03-04T04:07:37.757Z,35.99
2023-03-04T04:10:08.028Z,35.86
2023-03-04T04:12:36.196Z,35.88
2023-03-04T04:15:04.477Z,35.86
2023-03-04T04:17:32.549Z,35.55
2023-03-04T04:20:00.604Z,36.20
2023-03-04T04:22:28.689Z,35.46
2023-03-04T04:24:56.794Z,35.96
2023-03-04T04:27:26.257Z,35.84
2023-03-04T04:29:54.331Z,35.77
2023-03-04T04:32:22.446Z,35.66
2023-03-04T04:34:50.572Z,36.08
2023-03-04T04:37:18.617Z,35.94
2023-03-04T04:39:46.786Z,36.11
2023-03-04T04:42:14.884Z,35.64
2023-03-04T04:44:44.356Z,35.88
2023-03-04T04:47:12.452Z,36.05
2023-03-04T04:49:40.566Z,36.08
2023-03-04T04:52:08.616Z,36.11
2023-03-04T04:54:36.694Z,35.63
2023-03-04T04:57:04.882Z,35.43
2023-03-04T04:59:32.981Z,35.53
2023-03-04T05:02:02.482Z,35.98
2023-03-04T05:04:30.579Z,35.74
2023-03-04T05:06:58.614Z,35.86
2023-03-04T05:09:26.781Z,35.23
2023-03-04T05:11:54.920Z,35.27
2023-03-04T05:14:23.167Z,35.33
2023-03-04T05:16:52.990Z,35.94
2023-03-04T05:19:22.532Z,35.23
2023-03-04T05:21:50.652Z,35.44
2023-03-04T05:24:18.762Z,35.43
2023-03-04T05:26:46.871Z,35.21
2023-03-04T05:29:14.945Z,35.26
2023-03-04T05:31:43.043Z,35.93
2023-03-04T05:34:11.139Z,35.38
2023-03-04T05:36:40.632Z,35.25
2023-03-04T05:39:08.734Z,35.28
2023-03-04T05:41:36.857Z,35.30
2023-03-04T05:44:05.088Z,35.48
2023-03-04T05:46:33.800Z,35.65
2023-03-04T05:49:02.016Z,35.70
2023-03-04T05:51:30.161Z,35.51
2023-03-04T05:53:59.610Z,35.59
2023-03-04T05:56:28.114Z,35.78
2023-03-04T05:58:58.411Z,35.62
2023-03-04T06:01:26.583Z,35.66
2023-03-04T06:03:54.700Z,35.77
2023-03-04T06:06:22.843Z,35.03
2023-03-04T06:08:50.957Z,35.46
2023-03-04T06:11:20.552Z,35.78
2023-03-04T06:13:49.085Z,35.34
2023-03-04T06:16:17.240Z,35.23
2023-03-04T06:18:45.343Z,35.02
2023-03-04T06:21:13.501Z,35.21
2023-03-04T06:23:42.127Z,35.08
2023-03-04T06:26:12.229Z,35.51
2023-03-04T06:28:41.717Z,35.12
2023-03-04T06:31:09.855Z,35.76
2023-03-04T06:33:38.104Z,35.09
2023-03-04T06:36:06.865Z,35.63
2023-03-04T06:38:35.053Z,35.73
2023-03-04T06:41:08.724Z,35.59
2023-03-04T06:43:36.894Z,35.17
2023-03-04T06:46:06.748Z,35.39
2023-03-04T06:48:34.926Z,35.30
2023-03-04T06:51:07.085Z,35.39
2023-03-04T06:53:35.201Z,35.09
2023-03-04T06:56:03.321Z,35.06
2023-03-04T06:58:31.390Z,35.14
2023-03-04T07:00:59.473Z,35.67
2023-03-04T07:03:28.984Z,35.75
2023-03-04T07:05:57.094Z,35.26
2023-03-04T07:08:25.203Z,35.19
2023-03-04T07:10:53.311Z,35.64
2023-03-04T07:13:21.409Z,35.96
2023-03-04T07:15:49.520Z,35.99
2023-03-04T07:18:17.592Z,35.35
2023-03-04T07:20:47.029Z,35.67
2023-03-04T07:23:15.153Z,35.98
2023-03-04T07:25:43.220Z,35.62
2023-03-04T07:28:11.285Z,35.34
2023-03-04T07:30:39.380Z,35.65
2023-03-04T07:33:07.444Z,35.35
2023-03-04T07:35:35.631Z,36.07
2023-03-04T07:38:05.144Z,36.14
2023-03-04T07:40:33.239Z,35.79
2023-03-04T07:43:01.422Z,36.60
2023-03-04T07:45:29.980Z,36.16
2023-03-04T07:47:59.285Z,36.06
2023-03-04T07:50:27.385Z,36.83
2023-03-04T07:52:55.478Z,36.68
2023-03-04T07:55:25.018Z,36.74
2023-03-04T07:57:53.114Z,36.99
2023-03-04T08:00:21.982Z,36.24
2023-03-04T08:02:50.171Z,36.60
2023-03-04T08:05:18.485Z,37.01
2023-03-04T08:07:46.565Z,37.02
2023-03-04T08:10:14.659Z,36.67
2023-03-04T08:12:44.105Z,36.94
2023-03-04T08:15:13.083Z,36.38
2023-03-04T08:17:41.130Z,36.20
2023-03-04T08:20:10.760Z,36.91
2023-03-04T08:22:38.844Z,36.37
2023-03-04T08:25:07.333Z,36.90
2023-03-04T08:27:37.232Z,36.78
2023-03-04T08:30:07.846Z,36.66
2023-03-04T08:32:36.016Z,36.65
2023-03-04T08:35:04.297Z,36.72
2023-03-04T08:37:32.404Z,36.07
2023-03-04T08:40:00.606Z,35.94
2023-03-04T08:42:28.854Z,35.87
2023-03-04T08:44:56.941Z,36.58
2023-03-04T08:47:26.524Z,36.04
2023-03-04T08:49:54.599Z,36.17
2023-03-04T08:52:22.773Z,36.62
2023-03-04T08:54:50.873Z,36.43
2023-03-04T08:57:19.138Z,36.30
2023-03-04T08:59:47.328Z,36.65
2023-03-04T09:02:15.426Z,36.06
2023-03-04T09:04:44.894Z,36.59
2023-03-04T09:07:14.226Z,36.57
2023-03-04T09:09:42.324Z,36.37
2023-03-04T09:12:10.494Z,36.10
2023-03-04T09:14:38.578Z,35.99
2023-03-04T09:17:07.050Z,36.07
2023-03-04T09:19:35.135Z,35.57
2023-03-04T09:22:04.580Z,35.54
2023-03-04T09:24:32.667Z,35.68
2023-03-04T09:27:00.736Z,35.72
2023-03-04T09:29:28.853Z,35.93
2023-03-04T09:31:56.950Z,36.09
2023-03-04T09:34:25.084Z,35.79
2023-03-04T09:36:53.137Z,35.79
2023-03-04T09:39:22.693Z,36.28
2023-03-04T09:41:52.970Z,36.24
2023-03-04T09:44:24.338Z,36.08
2023-03-04T09:46:52.616Z,36.15
2023-03-04T09:49:21.066Z,36.60
2023-03-04T09:51:57.890Z,36.84
2023-03-04T09:54:34.345Z,36.99
2023-03-04T09:57:18.095Z,37.07
2023-03-04T09:59:48.213Z,37.29
2023-03-04T10:02:18.781Z,37.09
2023-03-04T10:04:49.667Z,37.26
2023-03-04T10:07:19.628Z,37.38
2023-03-04T10:09:51.233Z,37.25
2023-03-04T10:12:21.161Z,37.94
2023-03-04T10:14:51.411Z,37.92
2023-03-04T10:17:21.403Z,38.09
2023-03-04T10:19:56.170Z,38.35
2023-03-04T10:22:28.324Z,37.94
2023-03-04T10:24:58.900Z,38.31
2023-03-04T10:27:27.088Z,38.57
2023-03-04T10:29:55.164Z,39.02
2023-03-04T10:32:23.308Z,39.12
2023-03-04T10:34:51.462Z,38.98
2023-03-04T10:37:19.602Z,39.72
2023-03-04T10:39:49.380Z,39.75
2023-03-04T10:42:37.634Z,40.17
2023-03-04T10:45:07.493Z,39.72
2023-03-04T10:47:35.608Z,39.76
2023-03-04T10:50:05.374Z,40.19
2023-03-04T10:52:34.164Z,39.94
2023-03-04T10:55:03.311Z,40.14
2023-03-04T10:57:36.111Z,40.58
2023-03-04T11:00:04.986Z,40.13
2023-03-04T11:02:33.420Z,40.24
2023-03-04T11:05:18.939Z,40.22
2023-03-04T11:07:55.576Z,40.76
2023-03-04T11:10:25.162Z,40.52
2023-03-04T11:12:57.309Z,40.51
2023-03-04T11:15:27.664Z,40.15
2023-03-04T11:17:56.465Z,40.30
2023-03-04T11:20:30.955Z,39.92
2023-03-04T11:23:04.196Z,40.46
2023-03-04T11:25:34.165Z,40.53
2023-03-04T11:28:04.816Z,40.73
2023-03-04T11:30:39.420Z,40.71
2023-03-04T11:33:23.480Z,40.26
2023-03-04T11:36:01.165Z,40.65
2023-03-04T11:38:32.902Z,40.33
2023-03-04T11:41:01.567Z,40.33
2023-03-04T11:43:33.470Z,40.40
2023-03-04T11:46:26.997Z,40.59
2023-03-04T11:48:58.216Z,40.84
2023-03-04T11:51:28.646Z,40.21
2023-03-04T11:54:07.239Z,40.98
2023-03-04T11:56:36.411Z,40.57
2023-03-04T11:59:13.297Z,40.71
2023-03-04T12:01:44.323Z,40.89
2023-03-04T12:04:40.573Z,40.57
2023-03-04T12:07:22.469Z,41.03
2023-03-04T12:09:58.441Z,40.64
2023-03-04T12:12:43.269Z,40.59
2023-03-04T12:15:16.905Z,40.87
2023-03-04T12:18:02.564Z,40.50
2023-03-04T12:20:46.004Z,40.69
2023-03-04T12:23:22.805Z,40.86
2023-03-04T12:25:53.123Z,40.83
2023-03-04T12:28:28.225Z,41.13
2023-03-04T12:31:19.017Z,41.44
2023-03-04T12:33:56.019Z,40.85
2023-03-04T12:36:27.329Z,41.41
2023-03-04T12:39:00.832Z,40.82
2023-03-04T12:41:35.368Z,40.97
2023-03-04T12:44:13.628Z,41.54
2023-03-04T12:46:49.548Z,40.90
2023-03-04T12:49:28.134Z,41.37
2023-03-04T12:51:59.878Z,40.97
2023-03-04T12:54:32.669Z,41.49
2023-03-04T12:57:02.328Z,41.29
2023-03-04T12:59:32.169Z,41.49
2023-03-04T13:02:07.715Z,41.24
2023-03-04T13:04:39.559Z,41.66
2023-03-04T13:07:13.643Z,41.11
2023-03-04T13:09:45.664Z,41.28
2023-03-04T13:12:16.619Z,41.51
2023-03-04T13:15:28.190Z,41.41
2023-03-04T13:17:58.260Z,41.77
2023-03-04T13:20:33.895Z,41.56
2023-03-04T13:23:02.209Z,41.55
2023-03-04T13:25:42.129Z,41.89
2023-03-04T13:28:24.388Z,41.71
2023-03-04T13:31:20.872Z,41.59
2023-03-04T13:34:04.629Z,41.38
2023-03-04T13:37:11.221Z,41.78
2023-03-04T13:39:39.401Z,41.89
2023-03-04T13:42:38.963Z,41.45
2023-03-04T13:45:31.456Z,40.27
2023-03-04T13:47:59.697Z,40.28
2023-03-04T13:50:40.897Z,40.40
2023-03-04T13:53:45.476Z,41.35
2023-03-04T13:56:28.890Z,41.21
2023-03-04T13:59:25.601Z,41.19
2023-03-04T14:01:57.941Z,40.76
2023-03-04T14:04:29.305Z,41.35
2023-03-04T14:06:59.739Z,41.45
2023-03-04T14:09:28.739Z,41.28
2023-03-04T14:11:58.368Z,41.23
2023-03-04T14:14:27.818Z,40.92
2023-03-04T14:16:56.846Z,41.41
2023-03-04T14:19:27.193Z,41.49
2023-03-04T14:21:55.457Z,41.08
2023-03-04T14:24:25.179Z,40.86
2023-03-04T14:27:05.872Z,40.83
2023-03-04T14:29:34.057Z,40.86
2023-03-04T14:32:02.978Z,40.95
2023-03-04T14:34:33.293Z,41.45
2023-03-04T14:37:01.407Z,41.39
2023-03-04T14:39:33.224Z,41.59
2023-03-04T14:42:03.401Z,40.85
2023-03-04T14:44:35.932Z,41.14
2023-03-04T14:47:09.681Z,41.58
2023-03-04T14:49:38.369Z,40.95
2023-03-04T14:52:06.625Z,41.69
2023-03-04T14:54:37.445Z,41.03
2023-03-04T14:57:26.156Z,41.53
2023-03-04T14:59:54.595Z,41.14
2023-03-04T15:02:31.137Z,41.46
2023-03-04T15:05:00.416Z,41.53
2023-03-04T15:07:32.381Z,40.97
2023-03-04T15:10:01.829Z,41.32
2023-03-04T15:12:30.786Z,41.22
2023-03-04T15:14:59.115Z,41.59
2023-03-04T15:17:31.630Z,41.55
2023-03-04T15:20:04.592Z,41.38
2023-03-04T15:22:32.991Z,41.33
2023-03-04T15:25:02.434Z,41.11
2023-03-04T15:27:31.499Z,41.39
2023-03-04T15:30:01.673Z,41.20
2023-03-04T15:32:30.097Z,41.16
2023-03-04T15:34:58.433Z,41.38
2023-03-04T15:37:28.033Z,41.21
2023-03-04T15:39:56.253Z,41.64
2023-03-04T15:42:25.863Z,41.34
2023-03-04T15:44:53.951Z,41.08
2023-03-04T15:47:22.111Z,41.52
2023-03-04T15:49:50.197Z,41.36
2023-03-04T15:52:19.165Z,40.95
2023-03-04T15:54:47.339Z,41.29
2023-03-04T15:57:19.708Z,40.99
2023-03-04T15:59:49.252Z,41.27
2023-03-04T16:02:21.318Z,40.90
2023-03-04T16:04:49.449Z,41.34
2023-03-04T16:07:18.019Z,41.42
2023-03-04T16:09:46.221Z,41.09
2023-03-04T16:12:14.312Z,40.95
2023-03-04T16:14:44.385Z,40.77
2023-03-04T16:17:15.965Z,41.14
2023-03-04T16:19:44.089Z,41.13
2023-03-04T16:22:13.277Z,41.21
2023-03-04T16:24:41.327Z,41.37
2023-03-04T16:27:11.514Z,40.74
2023-03-04T16:29:39.628Z,40.87
2023-03-04T16:32:08.389Z,40.92
2023-03-04T16:34:37.948Z,40.99
2023-03-04T16:37:08.531Z,40.85
2023-03-04T16:39:36.728Z,41.13
2023-03-04T16:42:05.115Z,40.97
2023-03-04T16:44:33.220Z,40.58
2023-03-04T16:47:03.352Z,40.93
2023-03-04T16:49:31.512Z,40.48
2023-03-04T16:52:01.620Z,40.77
2023-03-04T16:54:31.453Z,41.06
2023-03-04T16:56:59.869Z,40.38
2023-03-04T16:59:28.352Z,40.62
2023-03-04T17:01:56.531Z,40.70
2023-03-04T17:04:24.841Z,40.67
2023-03-04T17:06:52.983Z,40.39
2023-03-04T17:09:22.455Z,40.69
2023-03-04T17:11:50.556Z,40.86
2023-03-04T17:14:18.671Z,40.57
2023-03-04T17:16:46.729Z,40.92
2023-03-04T17:19:14.793Z,40.61
2023-03-04T17:21:42.897Z,40.61
2023-03-04T17:24:11.957Z,40.59
2023-03-04T17:26:42.718Z,40.78
2023-03-04T17:29:10.801Z,40.68
2023-03-04T17:31:38.977Z,40.89
2023-03-04T17:34:07.097Z,40.90
2023-03-04T17:36:35.240Z,40.13
2023-03-04T17:39:03.427Z,40.14
2023-03-04T17:41:31.693Z,40.46
2023-03-04T17:44:01.822Z,40.74
2023-03-04T17:46:30.203Z,40.73
2023-03-04T17:48:59.818Z,40.01
2023-03-04T17:51:37.721Z,40.68
2023-03-04T17:54:06.663Z,39.91
2023-03-04T17:56:34.963Z,40.07
2023-03-04T17:59:06.195Z,40.53
2023-03-04T18:01:34.602Z,40.52
2023-03-04T18:04:02.790Z,40.49
2023-03-04T18:06:31.019Z,39.98
2023-03-04T18:08:59.305Z,40.00
2023-03-04T18:11:27.758Z,40.01
2023-03-04T18:13:56.719Z,38.31
2023-03-04T18:16:27.329Z,38.19
2023-03-04T18:18:57.744Z,38.84
2023-03-04T18:21:26.012Z,38.50
2023-03-04T18:23:54.272Z,38.92
2023-03-04T18:26:23.698Z,39.24
2023-03-04T18:28:51.962Z,38.87
2023-03-04T18:31:20.293Z,39.16
2023-03-04T18:33:50.015Z,39.27
2023-03-04T18:36:18.171Z,38.55
2023-03-04T18:38:46.368Z,39.00
2023-03-04T18:41:15.602Z,38.60
2023-03-04T18:43:43.833Z,38.67
2023-03-04T18:46:13.015Z,39.18
2023-03-04T18:48:43.145Z,39.03
2023-03-04T18:51:12.796Z,39.11
2023-03-04T18:53:41.075Z,38.47
2023-03-04T18:56:12.371Z,38.89
2023-03-04T18:58:40.859Z,39.12
2023-03-04T19:01:09.730Z,38.49
2023-03-04T19:03:38.274Z,38.59
2023-03-04T19:06:06.965Z,38.42
2023-03-04T19:08:36.494Z,38.37
2023-03-04T19:11:05.941Z,38.33
2023-03-04T19:13:34.169Z,38.76
2023-03-04T19:16:02.311Z,38.94
2023-03-04T19:18:30.406Z,38.48
2023-03-04T19:21:00.837Z,38.20
2023-03-04T19:23:30.206Z,38.62
2023-03-04T19:25:59.826Z,38.25
2023-03-04T19:28:28.072Z,38.25
2023-03-04T19:30:59.284Z,38.49
2023-03-04T19:33:27.813Z,38.80
2023-03-04T19:35:56.196Z,38.48
2023-03-04T19:38:24.356Z,38.80
2023-03-04T19:40:52.510Z,39.05
2023-03-04T19:43:22.170Z,38.56
2023-03-04T19:45:54.157Z,38.87
2023-03-04T19:48:22.494Z,38.69
2023-03-04T19:50:50.680Z,38.48
2023-03-04T19:53:19.379Z,38.74
2023-03-04T19:55:49.149Z,39.02
2023-03-04T19:58:17.308Z,38.92
2023-03-04T20:00:47.817Z,38.71
2023-03-04T20:03:15.998Z,38.83
2023-03-04T20:05:44.212Z,38.49
2023-03-04T20:08:12.289Z,38.99
2023-03-04T20:10:41.150Z,39.13
2023-03-04T20:13:09.845Z,38.39
2023-03-04T20:15:38.011Z,38.45
2023-03-04T20:18:07.740Z,38.75
2023-03-04T20:20:35.887Z,38.72
2023-03-04T20:23:03.951Z,37.88
2023-03-04T20:25:32.943Z,38.62
2023-03-04T20:28:01.158Z,38.11
2023-03-04T20:30:29.317Z,38.49
2023-03-04T20:32:57.430Z,37.79
2023-03-04T20:35:26.906Z,38.33
2023-03-04T20:37:55.064Z,38.26
2023-03-04T20:40:23.187Z,37.92
2023-03-04T20:42:51.341Z,37.82
2023-03-04T20:45:20.294Z,37.58
2023-03-04T20:47:48.748Z,38.20
2023-03-04T20:50:17.914Z,37.66
2023-03-04T20:52:48.261Z,37.58
2023-03-04T20:55:16.504Z,38.33
2023-03-04T20:57:44.585Z,37.72
2023-03-04T21:00:13.775Z,38.15
2023-03-04T21:02:41.933Z,38.08
2023-03-04T21:05:10.610Z,38.14
2023-03-04T21:07:38.854Z,38.74
2023-03-04T21:10:09.393Z,39.09
2023-03-04T21:12:37.556Z,39.09
2023-03-04T21:15:06.733Z,39.25
2023-03-04T21:17:34.825Z,39.07
2023-03-04T21:20:03.060Z,38.69
2023-03-04T21:22:31.288Z,38.78
2023-03-04T21:24:59.382Z,39.30
2023-03-04T21:27:29.000Z,39.36
2023-03-04T21:29:57.088Z,39.30
2023-03-04T21:32:25.998Z,39.12
2023-03-04T21:34:54.737Z,38.95
2023-03-04T21:37:23.755Z,39.43
2023-03-04T21:39:51.914Z,39.48
2023-03-04T21:42:20.148Z,39.39
2023-03-04T21:44:51.476Z,39.10
2023-03-04T21:47:19.910Z,39.43
2023-03-04T21:49:48.067Z,39.15
2023-03-04T21:52:16.177Z,38.89
2023-03-04T21:54:44.368Z,39.02
2023-03-04T21:57:13.400Z,39.01
2023-03-04T21:59:41.664Z,39.29
2023-03-04T22:02:14.923Z,39.53
2023-03-04T22:04:43.131Z,39.08
2023-03-04T22:07:11.195Z,39.02
2023-03-04T22:09:39.600Z,39.23
2023-03-04T22:12:08.050Z,38.90
2023-03-04T22:14:36.185Z,38.74
2023-03-04T22:17:04.419Z,39.27
2023-03-04T22:19:34.049Z,38.63
2023-03-04T22:22:02.125Z,38.71
2023-03-04T22:24:30.198Z,38.96
2023-03-04T22:26:59.973Z,39.04
2023-03-04T22:29:28.067Z,39.34
2023-03-04T22:31:56.268Z,39.05
2023-03-04T22:34:24.420Z,38.73
2023-03-04T22:36:53.988Z,39.10
2023-03-04T22:39:23.118Z,39.23
2023-03-04T22:41:51.392Z,38.77
2023-03-04T22:44:19.529Z,38.93
2023-03-04T22:46:47.626Z,38.75
2023-03-04T22:49:15.730Z,38.50
2023-03-04T22:51:44.350Z,38.85
2023-03-04T22:54:14.164Z,38.73
2023-03-04T22:56:42.275Z,38.96
2023-03-04T22:59:10.450Z,39.03
2023-03-04T23:01:38.671Z,38.65
2023-03-04T23:04:06.859Z,38.81
2023-03-04T23:06:34.993Z,38.92
2023-03-04T23:09:03.234Z,38.79
2023-03-04T23:11:35.251Z,38.42
2023-03-04T23:14:06.519Z,38.57
2023-03-04T23:16:37.169Z,38.39
2023-03-04T23:19:05.839Z,38.62
2023-03-04T23:21:34.745Z,38.99
2023-03-04T23:24:03.065Z,38.29
2023-03-04T23:26:33.420Z,38.68
2023-03-04T23:29:02.113Z,38.25
2023-03-04T23:31:30.272Z,38.19
2023-03-04T23:33:58.483Z,38.73
2023-03-04T23:36:27.341Z,38.15
2023-03-04T23:38:55.562Z,38.82
2023-03-04T23:41:24.583Z,39.07
2023-03-04T23:43:55.013Z,38.52
2023-03-04T23:46:23.210Z,38.63
2023-03-04T23:48:51.421Z,38.03
2023-03-04T23:51:20.661Z,38.34
2023-03-04T23:53:48.922Z,38.62
2023-03-04T23:56:17.837Z,38.12
2023-03-04T23:58:46.251Z,38.09
